Time;durP1;ratioP1;P1;durP2;ratioP2;P2;SDS_P1;SDS_P2;PMS_P1;PMS_P2;Temp;Humidity;BMP_temperature;BMP_pressure;BME280_temperature;BME280_humidity;BME280_pressure;Samples;Min_cycle;Max_cycle;Signal;HPM_P1;HPM_P2
2021/06/14 00:01:39;;;;;;;2.10;1.90;;;15.50;95.20;;;;;;5015194;28;20455;-80
2021/06/14 00:04:07;;;;;;;2.60;2.50;;;15.40;95.10;;;;;;5015186;28;20551;-80
2021/06/14 00:06:34;;;;;;;2.43;2.20;;;15.40;94.60;;;;;;5015690;28;20439;-80
2021/06/14 00:09:01;;;;;;;2.17;1.83;;;15.50;94.90;;;;;;5015388;28;20452;-80
2021/06/14 00:11:28;;;;;;;3.23;2.40;;;15.50;92.90;;;;;;5015388;28;20447;-80
2021/06/14 00:13:55;;;;;;;2.80;2.60;;;15.50;94.40;;;;;;5015355;28;20451;-80
2021/06/14 00:16:22;;;;;;;2.13;1.93;;;15.50;94.70;;;;;;5014933;28;20447;-80
2021/06/14 00:18:48;;;;;;;3.43;2.30;;;15.50;94.20;;;;;;5015177;28;20443;-80
2021/06/14 00:21:18;;;;;;;2.83;2.63;;;15.50;94.30;;;;;;5014791;28;20471;-80
2021/06/14 00:23:45;;;;;;;3.10;2.73;;;15.50;94.80;;;;;;5015093;28;20990;-80
2021/06/14 00:26:14;;;;;;;2.80;2.50;;;15.50;94.40;;;;;;5014762;28;20448;-80
2021/06/14 00:28:42;;;;;;;5.03;3.00;;;15.50;95.50;;;;;;5015212;28;20443;-80
2021/06/14 00:31:09;;;;;;;2.67;2.47;;;15.50;96.20;;;;;;5014915;28;20463;-80
2021/06/14 00:33:37;;;;;;;2.80;2.60;;;15.40;96.90;;;;;;5014977;28;20462;-80
2021/06/14 00:36:05;;;;;;;2.70;2.50;;;15.30;96.70;;;;;;5014625;28;20440;-80
2021/06/14 00:38:33;;;;;;;3.57;2.60;;;15.30;96.60;;;;;;5014582;28;20439;-80
2021/06/14 00:41:01;;;;;;;4.73;2.43;;;15.20;97.00;;;;;;5014733;28;20454;-80
2021/06/14 00:43:28;;;;;;;3.10;2.50;;;15.10;97.40;;;;;;5014598;28;20836;-80
2021/06/14 00:45:56;;;;;;;2.17;2.07;;;15.10;97.80;;;;;;5014672;28;20456;-80
2021/06/14 00:48:22;;;;;;;2.93;2.63;;;15.00;99.00;;;;;;5014672;28;20444;-79
2021/06/14 00:50:51;;;;;;;2.70;2.50;;;14.90;99.00;;;;;;5014533;28;20451;-80
2021/06/14 00:53:20;;;;;;;3.00;2.30;;;14.90;99.40;;;;;;5014513;28;20479;-80
2021/06/14 00:55:49;;;;;;;2.80;2.50;;;14.80;98.60;;;;;;5014269;28;20834;-80
2021/06/14 00:58:16;;;;;;;3.17;2.37;;;14.80;99.60;;;;;;5014190;28;20806;-80
2021/06/14 01:00:44;;;;;;;3.10;2.77;;;14.80;99.00;;;;;;5014462;28;20451;-80
2021/06/14 01:03:11;;;;;;;2.40;2.20;;;14.80;99.60;;;;;;5014052;28;21003;-80
2021/06/14 01:05:40;;;;;;;2.63;2.43;;;14.80;99.90;;;;;;5014310;28;20491;-80
2021/06/14 01:08:08;;;;;;;2.47;2.27;;;14.80;99.90;;;;;;5014608;28;20450;-80
2021/06/14 01:10:36;;;;;;;2.50;2.27;;;14.70;99.90;;;;;;5014094;28;20459;-80
2021/06/14 01:13:17;;;;;;;3.37;2.67;;;14.70;99.90;;;;;;5014084;28;20982;-79
2021/06/14 01:15:59;;;;;;;2.90;2.60;;;14.70;99.90;;;;;;5014293;28;20424;-80
2021/06/14 01:18:32;;;;;;;4.90;2.60;;;14.60;99.90;;;;;;5014245;28;20436;-80
2021/06/14 01:21:12;;;;;;;2.97;2.73;;;14.60;99.90;;;;;;5013739;28;20471;-80
2021/06/14 01:23:53;;;;;;;3.03;2.83;;;14.60;99.90;;;;;;5013965;28;20773;-80
2021/06/14 01:26:22;;;;;;;4.23;3.10;;;14.60;99.90;;;;;;5013754;28;20802;-79
2021/06/14 01:28:53;;;;;;;3.43;3.13;;;14.50;99.90;;;;;;5014002;28;20460;-80
2021/06/14 01:31:21;;;;;;;2.87;2.57;;;14.50;99.90;;;;;;5013625;28;20439;-79
2021/06/14 01:33:50;;;;;;;2.37;2.17;;;14.40;99.90;;;;;;5013307;28;20791;-79
2021/06/14 01:36:23;;;;;;;4.90;2.70;;;14.40;99.90;;;;;;5013635;28;20948;-79
2021/06/14 01:38:50;;;;;;;2.30;2.20;;;14.40;99.90;;;;;;5013904;28;20436;-80
2021/06/14 01:41:19;;;;;;;2.50;2.30;;;14.30;99.90;;;;;;5013679;28;20452;-80
2021/06/14 01:43:47;;;;;;;2.60;2.40;;;14.30;99.90;;;;;;5013677;28;20447;-79
2021/06/14 01:46:20;;;;;;;4.90;3.03;;;14.20;99.90;;;;;;5013518;28;20924;-80
2021/06/14 01:48:47;;;;;;;3.30;3.10;;;14.20;99.90;;;;;;5013808;28;20432;-80
2021/06/14 01:51:18;;;;;;;3.90;2.30;;;14.10;99.90;;;;;;5013609;28;20451;-80
2021/06/14 01:54:02;;;;;;;3.70;2.50;;;14.10;99.90;;;;;;5013718;28;20446;-80
2021/06/14 01:56:30;;;;;;;4.30;2.77;;;14.00;99.90;;;;;;5013875;28;20451;-80
2021/06/14 01:58:59;;;;;;;3.27;2.30;;;14.00;99.90;;;;;;5013537;28;20961;-80
2021/06/14 02:01:29;;;;;;;3.10;2.80;;;14.00;99.90;;;;;;5013540;28;20447;-79
2021/06/14 02:03:56;;;;;;;5.87;2.93;;;14.00;99.90;;;;;;5013506;28;20466;-80
2021/06/14 02:06:24;;;;;;;3.13;2.80;;;14.00;99.90;;;;;;5013501;28;20935;-79
2021/06/14 02:08:51;;;;;;;2.60;2.40;;;14.00;99.90;;;;;;5013226;28;20455;-79
2021/06/14 02:11:19;;;;;;;3.00;2.73;;;14.00;99.90;;;;;;5013549;28;20412;-79
2021/06/14 02:13:47;;;;;;;2.67;2.50;;;14.00;99.90;;;;;;5013528;28;20447;-81
2021/06/14 02:16:16;;;;;;;3.17;2.83;;;13.90;99.90;;;;;;5013160;28;20955;-81
2021/06/14 02:18:45;;;;;;;3.27;2.97;;;13.90;99.90;;;;;;5013435;28;20447;-81
2021/06/14 02:21:12;;;;;;;3.00;2.80;;;13.90;99.90;;;;;;5013082;28;20983;-81
2021/06/14 02:23:40;;;;;;;3.20;2.90;;;13.90;99.90;;;;;;5013366;28;20447;-82
2021/06/14 02:26:06;;;;;;;3.33;2.40;;;13.90;99.90;;;;;;5013282;28;20494;-81
2021/06/14 02:28:33;;;;;;;3.17;2.87;;;13.80;99.90;;;;;;5013640;28;20458;-81
2021/06/14 02:31:00;;;;;;;3.90;3.20;;;13.80;99.90;;;;;;5012954;28;20935;-81
2021/06/14 02:33:27;;;;;;;3.40;3.10;;;13.70;99.90;;;;;;5013211;28;20467;-81
2021/06/14 02:35:55;;;;;;;3.53;3.23;;;13.70;99.90;;;;;;5012972;28;20440;-81
2021/06/14 02:38:23;;;;;;;2.80;2.60;;;13.60;99.90;;;;;;5013259;28;20455;-81
2021/06/14 02:40:50;;;;;;;4.03;2.50;;;13.60;99.90;;;;;;5013066;28;20451;-81
2021/06/14 02:43:20;;;;;;;6.27;3.47;;;13.60;99.90;;;;;;5012922;28;20462;-81
2021/06/14 02:45:49;;;;;;;3.40;3.10;;;13.60;99.90;;;;;;5014144;28;20490;-81
2021/06/14 02:48:17;;;;;;;3.40;2.80;;;13.50;99.90;;;;;;5016911;28;20449;-81
2021/06/14 02:50:46;;;;;;;3.20;2.90;;;13.50;99.90;;;;;;5016639;28;20440;-81
2021/06/14 02:53:15;;;;;;;7.60;3.97;;;13.50;99.90;;;;;;5016544;28;20828;-81
2021/06/14 02:55:51;;;;;;;3.87;2.60;;;13.50;99.90;;;;;;5016729;28;20454;-81
2021/06/14 02:58:25;;;;;;;5.53;3.70;;;13.50;99.90;;;;;;5016846;28;20462;-81
2021/06/14 03:00:52;;;;;;;3.67;3.30;;;13.40;99.90;;;;;;5016771;28;20454;-81
2021/06/14 03:03:19;;;;;;;3.70;2.83;;;13.50;99.90;;;;;;5016639;28;20855;-81
2021/06/14 03:05:46;;;;;;;4.17;2.93;;;13.40;99.90;;;;;;5016546;28;20486;-81
2021/06/14 03:08:17;;;;;;;4.50;3.50;;;13.40;99.90;;;;;;5016575;28;20951;-81
2021/06/14 03:10:44;;;;;;;3.77;3.47;;;13.30;99.90;;;;;;5016567;28;20490;-80
2021/06/14 03:13:11;;;;;;;4.87;3.30;;;13.30;99.90;;;;;;5016432;28;20466;-79
2021/06/14 03:15:38;;;;;;;3.73;3.00;;;13.30;99.90;;;;;;5016355;28;20452;-80
2021/06/14 03:18:06;;;;;;;3.73;3.37;;;13.20;99.90;;;;;;5016063;28;21054;-79
2021/06/14 03:20:34;;;;;;;5.13;3.60;;;13.20;99.90;;;;;;5016090;28;20490;-80
2021/06/14 03:23:00;;;;;;;3.83;3.43;;;13.20;99.90;;;;;;5016209;28;20482;-80
2021/06/14 03:25:29;;;;;;;4.70;4.30;;;13.20;99.90;;;;;;5016166;28;20483;-79
2021/06/14 03:27:56;;;;;;;3.93;3.33;;;13.10;99.90;;;;;;5016199;28;20470;-80
2021/06/14 03:30:24;;;;;;;3.73;3.20;;;13.10;99.90;;;;;;5016113;28;20460;-80
2021/06/14 03:32:53;;;;;;;3.73;3.07;;;13.10;99.90;;;;;;5016015;28;20478;-80
2021/06/14 03:35:22;;;;;;;3.70;3.30;;;13.10;99.90;;;;;;5016047;28;20826;-80
2021/06/14 03:37:49;;;;;;;4.83;3.43;;;13.10;99.90;;;;;;5015895;28;20443;-80
2021/06/14 03:40:17;;;;;;;4.90;3.00;;;13.20;99.90;;;;;;5016248;28;20924;-79
2021/06/14 03:42:46;;;;;;;5.13;3.63;;;13.20;99.90;;;;;;5015599;28;20452;-80
2021/06/14 03:45:14;;;;;;;4.27;3.87;;;13.30;99.90;;;;;;5015774;28;20494;-80
2021/06/14 03:47:40;;;;;;;5.40;3.80;;;13.30;99.90;;;;;;5015801;28;20456;-79
2021/06/14 03:50:10;;;;;;;4.00;3.40;;;13.30;99.90;;;;;;5015481;28;20958;-80
2021/06/14 03:52:39;;;;;;;6.00;3.30;;;13.30;99.90;;;;;;5015416;28;20460;-80
2021/06/14 03:55:08;;;;;;;3.23;2.93;;;13.40;99.90;;;;;;5015434;28;20474;-80
2021/06/14 03:57:35;;;;;;;3.97;3.60;;;13.50;99.90;;;;;;5015194;28;20455;-80
2021/06/14 04:00:05;;;;;;;4.33;3.60;;;13.50;99.90;;;;;;5015230;28;20454;-80
2021/06/14 04:02:32;;;;;;;4.03;3.73;;;13.60;99.90;;;;;;5015399;28;20463;-80
2021/06/14 04:04:58;;;;;;;3.80;3.47;;;13.70;99.90;;;;;;5015310;28;20971;-79
2021/06/14 04:07:25;;;;;;;5.47;3.33;;;13.70;99.90;;;;;;5015121;28;20952;-80
2021/06/14 04:09:54;;;;;;;6.37;4.20;;;13.80;99.90;;;;;;5015378;28;20475;-79
2021/06/14 04:12:20;;;;;;;4.67;3.83;;;13.80;99.90;;;;;;5014970;28;21007;-80
2021/06/14 04:14:47;;;;;;;3.80;3.37;;;13.80;99.90;;;;;;5015078;28;20451;-80
2021/06/14 04:17:15;;;;;;;4.80;3.67;;;13.80;99.90;;;;;;5015140;28;20435;-80
2021/06/14 04:19:42;;;;;;;4.07;3.77;;;13.80;99.90;;;;;;5014996;28;20451;-81
2021/06/14 04:22:08;;;;;;;3.60;3.30;;;13.80;99.90;;;;;;5015127;28;20476;-81
2021/06/14 04:24:35;;;;;;;3.50;3.30;;;13.90;99.90;;;;;;5014717;28;20943;-81
2021/06/14 04:27:02;;;;;;;3.53;3.20;;;13.90;99.90;;;;;;5015079;28;20527;-81
2021/06/14 04:29:29;;;;;;;3.33;3.03;;;13.90;99.90;;;;;;5015037;28;20471;-81
2021/06/14 04:31:56;;;;;;;3.33;3.03;;;14.00;99.90;;;;;;5014835;28;20452;-81
2021/06/14 04:34:24;;;;;;;5.13;2.77;;;14.10;99.90;;;;;;5014873;28;20451;-81
2021/06/14 04:36:51;;;;;;;7.43;3.53;;;14.10;99.90;;;;;;5014591;28;20440;-81
2021/06/14 04:39:18;;;;;;;3.07;2.70;;;14.10;99.90;;;;;;5014546;28;20458;-81
2021/06/14 04:41:45;;;;;;;2.63;2.53;;;14.20;99.90;;;;;;5014737;28;20472;-81
2021/06/14 04:44:12;;;;;;;4.33;3.00;;;14.30;99.90;;;;;;5014749;28;20452;-81
2021/06/14 04:46:39;;;;;;;3.90;2.77;;;14.30;99.90;;;;;;5014629;28;20494;-81
2021/06/14 04:49:05;;;;;;;3.40;3.10;;;14.40;99.90;;;;;;5014708;28;20478;-81
2021/06/14 04:51:34;;;;;;;3.37;3.07;;;14.40;99.90;;;;;;5014302;28;20456;-81
2021/06/14 04:54:01;;;;;;;3.53;3.20;;;14.50;99.90;;;;;;5014312;28;20458;-81
2021/06/14 04:56:28;;;;;;;3.80;3.30;;;14.50;99.90;;;;;;5014528;28;20443;-81
2021/06/14 04:58:54;;;;;;;4.07;3.60;;;14.60;99.90;;;;;;5015007;28;20454;-82
2021/06/14 05:01:21;;;;;;;6.10;4.00;;;14.60;99.90;;;;;;5014363;28;20459;-81
2021/06/14 05:03:48;;;;;;;6.17;2.70;;;14.60;99.90;;;;;;5014114;28;20447;-81
2021/06/14 05:06:15;;;;;;;3.00;2.80;;;14.70;99.90;;;;;;5013979;28;20859;-81
2021/06/14 05:08:43;;;;;;;4.43;3.20;;;14.80;99.90;;;;;;5013578;28;20443;-81
2021/06/14 05:11:09;;;;;;;2.53;2.30;;;15.00;99.90;;;;;;5013990;28;20462;-82
2021/06/14 05:13:36;;;;;;;4.73;3.17;;;15.20;99.90;;;;;;5013941;28;20459;-81
2021/06/14 05:16:03;;;;;;;4.70;2.87;;;15.40;99.90;;;;;;5013911;28;20446;-81
2021/06/14 05:18:30;;;;;;;3.00;2.80;;;15.50;99.90;;;;;;5013881;28;20455;-81
2021/06/14 05:20:56;;;;;;;3.43;2.80;;;15.60;99.90;;;;;;5013789;28;20479;-81
2021/06/14 05:23:23;;;;;;;3.53;2.90;;;15.70;99.90;;;;;;5013718;28;20998;-81
2021/06/14 05:25:51;;;;;;;3.97;3.10;;;15.70;99.90;;;;;;5013872;28;20487;-81
2021/06/14 05:28:18;;;;;;;2.73;2.53;;;15.70;99.90;;;;;;5013985;28;20439;-81
2021/06/14 05:30:45;;;;;;;3.80;3.07;;;15.80;99.90;;;;;;5013669;28;20436;-81
2021/06/14 05:33:12;;;;;;;3.27;2.87;;;15.80;99.90;;;;;;5013875;28;20474;-81
2021/06/14 05:35:38;;;;;;;2.67;2.47;;;15.90;99.90;;;;;;5013847;28;20452;-81
2021/06/14 05:38:05;;;;;;;2.53;2.33;;;15.90;99.90;;;;;;5013601;28;20447;-81
2021/06/14 05:40:32;;;;;;;3.13;2.20;;;16.00;99.90;;;;;;5013979;28;20444;-81
2021/06/14 05:43:01;;;;;;;2.73;2.53;;;16.10;99.90;;;;;;5013551;28;21009;-81
2021/06/14 05:45:27;;;;;;;3.00;2.80;;;16.20;99.90;;;;;;5013457;28;20475;-81
2021/06/14 05:47:54;;;;;;;4.63;3.30;;;16.30;99.90;;;;;;5013507;28;20460;-81
2021/06/14 05:50:21;;;;;;;4.90;3.13;;;16.40;99.90;;;;;;5013406;28;20436;-81
2021/06/14 05:52:48;;;;;;;3.23;2.90;;;16.50;99.90;;;;;;5013491;28;21014;-81
2021/06/14 05:55:14;;;;;;;2.90;2.70;;;16.70;99.90;;;;;;5013626;28;20455;-81
2021/06/14 05:57:41;;;;;;;3.03;2.83;;;16.80;99.90;;;;;;5013372;28;20432;-81
2021/06/14 06:00:11;;;;;;;3.03;2.67;;;17.00;99.90;;;;;;5013783;28;20804;-81
2021/06/14 06:02:38;;;;;;;2.80;2.67;;;17.20;99.90;;;;;;5013451;28;20812;-81
2021/06/14 06:05:07;;;;;;;3.40;3.10;;;17.50;99.90;;;;;;5013752;28;20943;-81
2021/06/14 06:07:34;;;;;;;2.77;2.57;;;17.60;99.90;;;;;;5013490;28;20538;-81
2021/06/14 06:10:01;;;;;;;4.67;2.90;;;17.90;99.90;;;;;;5013682;28;20443;-81
2021/06/14 06:12:28;;;;;;;3.80;2.27;;;18.20;99.90;;;;;;5013462;28;20463;-81
2021/06/14 06:14:54;;;;;;;2.97;2.73;;;18.50;99.90;;;;;;5013216;28;20970;-81
2021/06/14 06:17:22;;;;;;;2.73;2.53;;;19.00;99.90;;;;;;5013420;28;20447;-81
2021/06/14 06:19:49;;;;;;;3.40;2.27;;;19.60;99.50;;;;;;5014186;28;20439;-81
2021/06/14 06:22:16;;;;;;;2.70;2.50;;;19.90;98.70;;;;;;5017104;28;20478;-81
2021/06/14 06:24:44;;;;;;;2.53;2.33;;;20.30;97.80;;;;;;5017182;28;20435;-82
2021/06/14 06:27:10;;;;;;;3.35;2.55;;;20.70;96.80;;;;;;5016987;28;20235;-82
2021/06/14 06:29:37;;;;;;;4.38;2.38;;;21.20;95.00;;;;;;5017357;28;20208;-82
2021/06/14 06:32:04;;;;;;;2.58;2.38;;;21.80;93.80;;;;;;5016854;28;20224;-82
2021/06/14 06:34:32;;;;;;;2.78;2.65;;;22.30;89.90;;;;;;5017098;28;20196;-82
2021/06/14 06:36:59;;;;;;;2.25;2.15;;;22.80;87.90;;;;;;5016766;28;20204;-82
2021/06/14 06:39:26;;;;;;;2.67;2.47;;;23.10;83.80;;;;;;5017116;28;20226;-81
2021/06/14 06:41:53;;;;;;;2.83;2.63;;;23.50;80.20;;;;;;5017024;28;20224;-82
2021/06/14 06:44:19;;;;;;;3.03;2.83;;;23.80;79.70;;;;;;5016640;28;20671;-82
2021/06/14 06:46:46;;;;;;;2.92;2.70;;;23.80;74.90;;;;;;5016567;28;20219;-82
2021/06/14 06:49:13;;;;;;;2.55;2.35;;;23.70;74.50;;;;;;5016607;28;20675;-82
2021/06/14 06:51:41;;;;;;;2.33;2.22;;;23.60;76.60;;;;;;5016807;28;20224;-82
2021/06/14 06:54:14;;;;;;;2.50;2.03;;;23.40;75.50;;;;;;5016877;28;20208;-82
2021/06/14 06:56:45;;;;;;;3.47;2.60;;;23.00;75.00;;;;;;5016872;28;20211;-82
2021/06/14 06:59:12;;;;;;;2.45;2.33;;;23.00;75.40;;;;;;5017484;28;20537;-82
2021/06/14 07:01:39;;;;;;;3.08;2.80;;;22.80;76.60;;;;;;5016646;28;20593;-81
2021/06/14 07:04:07;;;;;;;3.28;2.97;;;22.80;76.10;;;;;;5016664;28;20204;-82
2021/06/14 07:06:34;;;;;;;2.47;2.38;;;23.00;75.50;;;;;;5016415;28;20216;-81
2021/06/14 07:09:03;;;;;;;3.58;2.95;;;22.80;77.00;;;;;;5016261;28;20609;-81
2021/06/14 07:11:31;;;;;;;2.80;2.47;;;22.70;79.10;;;;;;5016440;28;20290;-82
2021/06/14 07:13:58;;;;;;;2.88;2.65;;;22.80;75.10;;;;;;5016176;28;20199;-79
2021/06/14 07:16:25;;;;;;;2.67;2.53;;;22.90;74.90;;;;;;5017344;28;20234;-81
2021/06/14 07:18:54;;;;;;;3.50;2.67;;;22.70;74.20;;;;;;5016359;28;20375;-79
2021/06/14 07:21:22;;;;;;;2.70;2.42;;;22.60;74.00;;;;;;5016055;28;20255;-79
2021/06/14 07:23:49;;;;;;;3.28;2.40;;;22.60;73.90;;;;;;5017255;28;20579;-80
2021/06/14 07:26:17;;;;;;;2.92;2.72;;;22.80;73.90;;;;;;5015866;28;20576;-79
2021/06/14 07:28:44;;;;;;;2.30;2.10;;;23.30;73.90;;;;;;5016054;28;20229;-78
2021/06/14 07:31:11;;;;;;;2.80;2.60;;;23.60;74.20;;;;;;5015163;28;20212;-79
2021/06/14 07:33:40;;;;;;;3.63;2.47;;;23.90;72.20;;;;;;5015925;28;20192;-78
2021/06/14 07:36:09;;;;;;;3.08;2.30;;;24.40;70.50;;;;;;5016141;28;20640;-79
2021/06/14 07:38:36;;;;;;;2.50;2.20;;;25.10;67.30;;;;;;5016352;28;20704;-79
2021/06/14 07:41:04;;;;;;;4.47;2.90;;;25.60;65.70;;;;;;5016193;28;20214;-80
2021/06/14 07:43:32;;;;;;;3.03;2.63;;;25.80;66.20;;;;;;5015684;28;20220;-79
2021/06/14 07:45:59;;;;;;;3.35;2.83;;;26.10;64.50;;;;;;5015496;28;20215;-79
2021/06/14 07:48:26;;;;;;;2.80;2.70;;;26.50;65.10;;;;;;5015585;28;20564;-79
2021/06/14 07:50:54;;;;;;;2.45;2.25;;;27.00;61.70;;;;;;5015539;28;20649;-80
2021/06/14 07:53:21;;;;;;;3.42;2.33;;;27.20;61.20;;;;;;5015698;28;20587;-78
2021/06/14 07:55:49;;;;;;;3.10;2.90;;;27.40;59.90;;;;;;5015657;28;20294;-80
2021/06/14 07:58:16;;;;;;;2.25;2.15;;;27.50;58.10;;;;;;5015830;28;20200;-83
2021/06/14 08:00:44;;;;;;;2.60;2.50;;;28.00;58.40;;;;;;5016439;28;20188;-83
2021/06/14 08:03:11;;;;;;;2.25;2.15;;;28.60;57.40;;;;;;5015490;28;20216;-83
2021/06/14 08:05:39;;;;;;;2.30;2.20;;;29.40;56.00;;;;;;5015477;28;20217;-83
2021/06/14 08:08:06;;;;;;;2.67;2.47;;;29.70;52.00;;;;;;5015313;28;20795;-83
2021/06/14 08:10:33;;;;;;;2.63;2.50;;;30.90;51.20;;;;;;5015069;28;20667;-83
2021/06/14 08:13:02;;;;;;;2.63;2.42;;;32.50;50.10;;;;;;5015371;28;20318;-83
2021/06/14 08:15:30;;;;;;;2.58;2.38;;;33.90;46.50;;;;;;5015033;28;20723;-83
2021/06/14 08:18:05;;;;;;;1.88;1.80;;;34.70;43.00;;;;;;5015591;28;20211;-85
2021/06/14 08:20:36;;;;;;;1.73;1.63;;;35.50;41.40;;;;;;5015011;28;20253;-84
2021/06/14 08:25:46;;;;;;;2.72;2.20;;;35.90;39.30;;;;;;5015085;28;20208;-84
2021/06/14 08:28:13;;;;;;;2.22;2.08;;;36.10;39.60;;;;;;5014755;28;20224;-84
2021/06/14 08:30:40;;;;;;;2.70;2.50;;;36.10;37.90;;;;;;5015148;28;20203;-84
2021/06/14 08:33:08;;;;;;;2.38;2.28;;;36.00;38.10;;;;;;5015142;28;20230;-82
2021/06/14 08:35:35;;;;;;;2.33;2.17;;;35.20;39.50;;;;;;5014970;28;20205;-82
2021/06/14 08:38:03;;;;;;;2.20;2.10;;;33.70;39.90;;;;;;5015783;28;20189;-80
2021/06/14 08:40:32;;;;;;;1.83;1.73;;;33.70;42.20;;;;;;5014878;28;20208;-80
2021/06/14 08:43:03;;;;;;;2.42;2.22;;;34.00;42.00;;;;;;5014922;28;20228;-81
2021/06/14 08:45:31;;;;;;;1.90;1.80;;;34.30;38.80;;;;;;5014992;28;20196;-80
2021/06/14 08:47:59;;;;;;;2.65;1.90;;;34.10;38.60;;;;;;5014417;28;20227;-80
2021/06/14 08:50:28;;;;;;;3.53;2.55;;;33.40;39.70;;;;;;5014632;28;20210;-80
2021/06/14 08:52:56;;;;;;;1.80;1.70;;;32.70;41.40;;;;;;5015001;28;20238;-80
2021/06/14 08:55:23;;;;;;;2.00;1.90;;;31.80;43.90;;;;;;5014292;28;20693;-80
2021/06/14 08:57:51;;;;;;;2.47;2.22;;;30.90;44.30;;;;;;5014554;28;20212;-80
2021/06/14 09:00:21;;;;;;;2.00;1.90;;;30.30;46.50;;;;;;5014442;28;20259;-79
2021/06/14 09:02:48;;;;;;;2.60;2.40;;;29.60;45.20;;;;;;5014197;28;20221;-79
2021/06/14 09:05:20;;;;;;;2.35;2.15;;;29.00;44.80;;;;;;5014167;28;20688;-78
2021/06/14 09:07:48;;;;;;;3.22;1.83;;;28.50;43.80;;;;;;5014321;28;20669;-79
2021/06/14 09:10:27;;;;;;;2.40;2.17;;;28.00;45.30;;;;;;5014407;28;20183;-79
2021/06/14 09:12:54;;;;;;;2.15;2.00;;;27.70;46.30;;;;;;5013273;28;20226;-78
2021/06/14 09:15:27;;;;;;;2.25;2.15;;;27.30;47.80;;;;;;5014538;28;20648;-80
2021/06/14 09:17:55;;;;;;;2.47;2.28;;;27.10;47.40;;;;;;5165895;22;20594;-79
2021/06/14 09:20:24;;;;;;;2.70;1.50;;;27.00;50.10;;;;;;5053574;28;20700;-79
2021/06/14 09:22:52;;;;;;;3.20;2.13;;;27.10;45.30;;;;;;5053699;28;20273;-79
2021/06/14 09:25:20;;;;;;;3.28;3.08;;;27.10;45.00;;;;;;5053763;28;20191;-79
2021/06/14 09:27:48;;;;;;;5.10;2.67;;;26.90;46.10;;;;;;5053340;28;20726;-79
2021/06/14 09:30:21;;;;;;;2.20;2.00;;;26.60;49.60;;;;;;5053698;28;20190;-79
2021/06/14 09:32:59;;;;;;;2.30;2.10;;;26.40;46.90;;;;;;5053198;28;20729;-79
2021/06/14 09:35:27;;;;;;;2.13;1.95;;;26.40;48.20;;;;;;5053500;28;20213;-77
2021/06/14 09:38:04;;;;;;;3.22;2.03;;;26.30;47.10;;;;;;5053324;28;20179;-79
2021/06/14 09:40:35;;;;;;;2.10;2.00;;;26.20;48.40;;;;;;5053583;28;20191;-78
2021/06/14 09:43:04;;;;;;;2.13;1.92;;;26.20;49.60;;;;;;5052645;28;20245;-77
2021/06/14 09:45:31;;;;;;;2.65;2.45;;;26.20;48.80;;;;;;5051744;28;20658;-79
2021/06/14 09:47:58;;;;;;;2.08;1.98;;;26.30;49.70;;;;;;5053373;28;20206;-79
2021/06/14 09:50:28;;;;;;;2.45;1.80;;;26.20;51.00;;;;;;5053413;28;20189;-79
2021/06/14 09:53:11;;;;;;;5.97;2.25;;;26.30;49.70;;;;;;5052970;28;20222;-79
2021/06/14 09:55:39;;;;;;;2.33;2.13;;;26.50;49.00;;;;;;5052905;28;20182;-78
2021/06/14 09:58:17;;;;;;;4.10;1.90;;;26.50;48.90;;;;;;5053309;28;20179;-79
2021/06/14 10:00:52;;;;;;;2.97;2.20;;;26.40;48.80;;;;;;5053289;28;20179;-80
2021/06/14 10:03:19;;;;;;;2.20;2.10;;;26.40;47.80;;;;;;5053163;28;20253;-79
2021/06/14 10:05:47;;;;;;;2.20;2.10;;;26.30;49.10;;;;;;5052968;28;20551;-79
2021/06/14 10:08:27;;;;;;;2.58;2.38;;;26.30;50.30;;;;;;5053049;28;20226;-79
2021/06/14 10:11:06;;;;;;;2.50;2.30;;;26.30;49.90;;;;;;5053223;28;20194;-79
2021/06/14 10:13:35;;;;;;;2.30;2.20;;;26.40;50.10;;;;;;5053136;28;20309;-79
2021/06/14 10:16:04;;;;;;;2.97;2.45;;;26.40;49.50;;;;;;5053058;28;20187;-79
2021/06/14 10:18:38;;;;;;;2.45;2.10;;;26.40;50.30;;;;;;5052797;28;20218;-79
2021/06/14 10:21:08;;;;;;;2.95;2.38;;;26.40;51.10;;;;;;5053207;28;20197;-78
2021/06/14 10:23:36;;;;;;;2.50;2.10;;;26.50;52.00;;;;;;5052812;28;20608;-78
2021/06/14 10:26:04;;;;;;;2.60;2.45;;;26.50;51.60;;;;;;5053008;28;20175;-76
2021/06/14 10:28:31;;;;;;;1.90;1.80;;;26.70;50.70;;;;;;5052640;28;20210;-79
2021/06/14 10:30:58;;;;;;;2.65;1.90;;;26.70;48.80;;;;;;5053008;28;20189;-80
2021/06/14 10:33:27;;;;;;;1.88;1.63;;;26.90;47.60;;;;;;5052825;28;20590;-79
2021/06/14 10:35:55;;;;;;;2.08;1.65;;;27.00;46.80;;;;;;5052962;28;20191;-80
2021/06/14 10:38:23;;;;;;;3.92;2.38;;;27.20;46.30;;;;;;5052926;28;20194;-77
2021/06/14 10:40:53;;;;;;;2.20;2.00;;;27.10;47.20;;;;;;5052573;28;20693;-79
2021/06/14 10:43:25;;;;;;;3.00;2.30;;;26.70;47.30;;;;;;5053093;28;20223;-76
2021/06/14 10:45:52;;;;;;;2.42;2.28;;;26.60;47.40;;;;;;5052815;28;20191;-77
2021/06/14 10:48:25;;;;;;;2.75;2.55;;;26.50;47.60;;;;;;5052776;28;20214;-78
2021/06/14 10:50:52;;;;;;;2.45;2.25;;;26.40;47.40;;;;;;5052868;28;20191;-79
2021/06/14 10:53:28;;;;;;;1.83;1.73;;;26.30;48.20;;;;;;5052493;28;20230;-80
2021/06/14 10:56:00;;;;;;;1.77;1.67;;;26.30;48.30;;;;;;5052735;28;20189;-79
2021/06/14 10:58:29;;;;;;;3.15;1.80;;;26.50;49.40;;;;;;5052716;28;20532;-79
2021/06/14 11:01:02;;;;;;;3.90;1.65;;;26.60;45.70;;;;;;5052694;28;20658;-79
2021/06/14 11:03:44;;;;;;;1.90;1.80;;;26.70;46.00;;;;;;5052975;28;20226;-79
2021/06/14 11:06:19;;;;;;;2.33;1.67;;;26.70;45.30;;;;;;5052756;28;20195;-79
2021/06/14 11:09:07;;;;;;;1.92;1.83;;;26.90;45.10;;;;;;5056023;28;20213;-79
2021/06/14 11:11:47;;;;;;;1.70;1.60;;;26.80;45.40;;;;;;5056173;28;20227;-79
2021/06/14 11:14:14;;;;;;;1.60;1.50;;;26.60;47.70;;;;;;5056215;28;20187;-79
2021/06/14 11:16:41;;;;;;;2.13;1.90;;;26.40;45.70;;;;;;5055869;28;20189;-78
2021/06/14 11:19:11;;;;;;;3.10;2.28;;;26.40;48.00;;;;;;5056214;28;20272;-78
2021/06/14 11:21:39;;;;;;;3.13;1.98;;;26.40;48.70;;;;;;5056043;28;20310;-78
2021/06/14 11:24:09;;;;;;;2.22;2.10;;;26.30;50.60;;;;;;5056577;28;20534;-78
2021/06/14 11:26:36;;;;;;;1.67;1.58;;;26.30;50.10;;;;;;5055776;28;20181;-79
2021/06/14 11:29:16;;;;;;;2.05;1.95;;;26.20;48.60;;;;;;5055888;28;20207;-78
2021/06/14 11:31:55;;;;;;;3.25;2.20;;;26.20;49.00;;;;;;5056315;28;20226;-79
2021/06/14 11:34:22;;;;;;;2.03;1.85;;;26.20;49.10;;;;;;5055778;28;20180;-78
2021/06/14 11:36:57;;;;;;;2.13;1.98;;;26.10;49.20;;;;;;5055514;28;20665;-78
2021/06/14 11:39:26;;;;;;;4.28;2.00;;;26.00;48.50;;;;;;5055744;28;20186;-78
2021/06/14 11:41:54;;;;;;;2.00;1.83;;;26.00;48.70;;;;;;5055792;28;20230;-79
2021/06/14 11:44:28;;;;;;;1.95;1.77;;;25.90;49.70;;;;;;5056152;28;20187;-78
2021/06/14 11:46:58;;;;;;;3.25;2.25;;;26.00;49.90;;;;;;5055882;28;20213;-78
2021/06/14 11:49:33;;;;;;;3.58;2.38;;;26.10;48.30;;;;;;5055535;28;20195;-79
2021/06/14 11:52:00;;;;;;;1.73;1.63;;;26.10;49.80;;;;;;5055164;28;20737;-79
2021/06/14 11:54:28;;;;;;;2.30;2.08;;;25.90;52.20;;;;;;5055460;28;20183;-78
2021/06/14 11:57:00;;;;;;;4.00;2.45;;;25.90;51.40;;;;;;5055672;28;20190;-79
2021/06/14 11:59:33;;;;;;;2.20;2.00;;;26.00;52.10;;;;;;5056076;28;20581;-79
2021/06/14 12:02:01;;;;;;;1.83;1.73;;;26.10;50.30;;;;;;5054946;28;20230;-79
2021/06/14 12:04:28;;;;;;;2.13;1.77;;;26.10;49.10;;;;;;5055039;28;20202;-79
2021/06/14 12:06:57;;;;;;;2.08;1.98;;;26.10;51.30;;;;;;5055252;28;20183;-79
2021/06/14 12:09:27;;;;;;;2.38;2.28;;;26.10;52.40;;;;;;5054827;28;20218;-80
2021/06/14 12:12:01;;;;;;;2.13;2.03;;;26.20;52.00;;;;;;5055249;28;20226;-82
2021/06/14 12:14:29;;;;;;;3.20;1.95;;;26.20;50.90;;;;;;5055138;28;20276;-82
2021/06/14 12:16:59;;;;;;;1.73;1.63;;;26.00;49.80;;;;;;5055038;28;20191;-83
2021/06/14 12:19:29;;;;;;;2.45;1.88;;;26.00;48.00;;;;;;5054559;28;20316;-82
2021/06/14 12:21:57;;;;;;;1.73;1.63;;;25.80;48.70;;;;;;5055787;28;20254;-83
2021/06/14 12:24:25;;;;;;;1.95;1.80;;;25.60;49.40;;;;;;5054897;28;20184;-82
2021/06/14 12:26:59;;;;;;;2.20;2.10;;;25.50;50.20;;;;;;5054592;28;20187;-82
2021/06/14 12:29:26;;;;;;;1.80;1.70;;;25.40;49.20;;;;;;5054785;28;20218;-82
2021/06/14 12:32:02;;;;;;;1.92;1.83;;;25.50;48.90;;;;;;5054671;28;20226;-82
2021/06/14 12:34:29;;;;;;;2.28;2.15;;;25.40;50.00;;;;;;5054491;28;20278;-82
2021/06/14 12:37:01;;;;;;;1.80;1.70;;;25.20;49.80;;;;;;5054839;28;20284;-82
2021/06/14 12:39:28;;;;;;;1.60;1.50;;;25.10;52.30;;;;;;5054384;28;20654;-82
2021/06/14 12:41:54;;;;;;;1.67;1.58;;;25.00;52.70;;;;;;5054228;28;20740;-83
2021/06/14 12:44:21;;;;;;;1.73;1.58;;;25.00;51.40;;;;;;5054304;28;20184;-83
2021/06/14 12:46:48;;;;;;;1.50;1.40;;;25.10;53.60;;;;;;5055381;28;20191;-83
2021/06/14 12:49:22;;;;;;;2.08;1.98;;;25.00;52.70;;;;;;5054306;28;20286;-83
2021/06/14 12:51:48;;;;;;;2.10;2.00;;;25.10;53.00;;;;;;5054533;28;20223;-80
2021/06/14 12:54:15;;;;;;;2.05;1.90;;;25.10;53.30;;;;;;5054656;28;20183;-80
2021/06/14 12:56:50;;;;;;;2.25;1.50;;;25.20;52.20;;;;;;5054307;28;20190;-79
2021/06/14 12:59:17;;;;;;;2.97;2.42;;;25.20;52.70;;;;;;5054260;28;20201;-80